| Date | Time | Temp. (oF) | Dew Point (oF) | Rel. Hum. (%) | Press. (in.) | Wind Dir. | Wind Speed (mph) | Hourly Rainfall (in.) |
|
|---|---|---|---|---|---|---|---|---|---|
| 1 | 04/23 | 00:00 | 43 | 29 | 59 | 29.76 | N | 7 | 0.00 |
| 2 | 04/22 | 23:00 | 44 | 35 | 71 | 29.76 | WSW | 4 | 0.00 |
| 3 | 04/22 | 22:00 | 46 | 36 | 69 | 29.75 | WNW | 10 | 0.00 |
| 4 | 04/22 | 21:00 | 50 | 34 | 56 | 29.70 | SSW | 5 | 0.00 |
| 5 | 04/22 | 20:00 | 50 | 32 | 51 | 29.67 | SSW | 7 | 0.00 |
| 6 | 04/22 | 19:00 | 53 | 32 | 46 | 29.64 | WSW | 4 | 0.00 |
| 7 | 04/22 | 18:00 | 53 | 43 | 71 | 29.62 | WSW | 7 | 0.00 |
| 8 | 04/22 | 17:00 | 51 | 44 | 78 | 29.62 | SW | 8 | 0.00 |
| 9 | 04/22 | 16:00 | 50 | 45 | 86 | 29.64 | WNW | 11 | 0.01 |
| 10 | 04/22 | 15:00 | 50 | 45 | 86 | 29.62 | NE | 6 | 0.02 |
| 11 | 04/22 | 14:00 | 48 | 44 | 88 | 29.66 | SSW | 7 | 0.01 |
| 12 | 04/22 | 13:00 | 65 | 35 | 34 | 29.52 | S | 17 | 0.00 |
| 13 | 04/22 | 12:00 | 66 | 38 | 36 | 29.55 | SSE | 19 | 0.00 |
| 14 | 04/22 | 11:00 | 65 | 38 | 38 | 29.61 | SSW | 16 | 0.00 |
| 15 | 04/22 | 10:00 | 60 | 36 | 41 | 29.66 | S | 10 | 0.00 |
| 16 | 04/22 | 09:00 | 56 | 34 | 45 | 29.68 | S | 7 | 0.00 |
| 17 | 04/22 | 08:00 | 47 | 38 | 73 | 29.72 | SSW | 2 | 0.00 |
| 18 | 04/22 | 07:00 | 42 | 36 | 80 | 29.73 | ENE | 0 | 0.00 |
| 19 | 04/22 | 06:00 | 44 | 36 | 75 | 29.73 | NNE | 0 | 0.00 |
| 20 | 04/22 | 05:00 | 45 | 35 | 69 | 29.75 | E | 0 | 0.00 |
| 21 | 04/22 | 04:00 | 46 | 37 | 72 | 29.75 | N | 0 | 0.00 |
| 22 | 04/22 | 03:00 | 47 | 36 | 68 | 29.75 | SSE | 3 | 0.00 |
| 23 | 04/22 | 02:00 | 47 | 34 | 62 | 29.77 | WNW | 5 | 0.00 |
| 24 | 04/22 | 01:00 | 48 | 31 | 53 | 29.76 | SSW | 0 | 0.00 |